Time;durP1;ratioP1;P1;durP2;ratioP2;P2;SDS_P1;SDS_P2;PMS_P1;PMS_P2;Temp;Humidity;BMP_temperature;BMP_pressure;BME280_temperature;BME280_humidity;BME280_pressure;Samples;Min_cycle;Max_cycle;Signal;HPM_P1;HPM_P2
2023/09/20 00:00:12;;;;;;;5.37;1.93;;;17.80;1.00;;;;;;4960111;29;20163;-76
2023/09/20 00:02:40;;;;;;;7.83;1.63;;;17.80;1.00;;;;;;4957584;28;20286;-76
2023/09/20 00:05:14;;;;;;;5.73;1.80;;;17.80;1.00;;;;;;4958498;29;20181;-78
2023/09/20 00:07:40;;;;;;;8.20;1.83;;;17.90;1.00;;;;;;4961226;29;20246;-78
2023/09/20 00:10:12;;;;;;;5.03;1.87;;;17.80;1.00;;;;;;4960514;28;20202;-78
2023/09/20 00:12:38;;;;;;;3.53;1.80;;;17.80;1.00;;;;;;4960936;28;20218;-79
2023/09/20 00:15:04;;;;;;;5.70;2.07;;;17.80;1.00;;;;;;4960759;29;20643;-78
2023/09/20 00:17:33;;;;;;;7.07;2.10;;;17.80;1.00;;;;;;4959407;29;20186;-79
2023/09/20 00:19:59;;;;;;;9.63;2.00;;;17.80;1.00;;;;;;4960921;29;20183;-79
2023/09/20 00:22:25;;;;;;;6.40;2.17;;;17.80;1.00;;;;;;4960202;28;20221;-78
2023/09/20 00:24:51;;;;;;;5.43;1.70;;;17.80;1.00;;;;;;4959175;29;20238;-78
2023/09/20 00:27:16;;;;;;;4.53;1.90;;;17.80;1.00;;;;;;4959400;29;20174;-78
2023/09/20 00:29:42;;;;;;;7.07;1.60;;;17.80;1.00;;;;;;4960242;29;20230;-79
2023/09/20 00:32:07;;;;;;;5.47;1.93;;;17.80;1.00;;;;;;4961790;28;20195;-78
2023/09/20 00:34:33;;;;;;;6.83;1.90;;;17.80;1.00;;;;;;4963350;29;20194;-78
2023/09/20 00:36:58;;;;;;;4.83;1.67;;;17.80;1.00;;;;;;4961349;29;20183;-78
2023/09/20 00:39:24;;;;;;;8.20;2.30;;;17.80;1.00;;;;;;4960731;29;20231;-78
2023/09/20 00:41:49;;;;;;;5.87;1.80;;;17.80;1.00;;;;;;4959515;28;20195;-78
2023/09/20 00:44:15;;;;;;;6.83;2.00;;;17.80;1.00;;;;;;4958621;29;20209;-78
2023/09/20 00:46:42;;;;;;;9.43;2.10;;;17.70;1.00;;;;;;4958711;29;20187;-78
2023/09/20 00:49:07;;;;;;;5.30;1.70;;;17.80;1.00;;;;;;4958672;29;20179;-78
2023/09/20 00:51:33;;;;;;;5.53;1.87;;;17.80;1.00;;;;;;4958052;28;20203;-78
2023/09/20 00:54:03;;;;;;;6.20;2.07;;;17.80;1.00;;;;;;4958434;29;20238;-80
2023/09/20 00:56:29;;;;;;;7.53;2.10;;;17.80;1.00;;;;;;4961917;28;20188;-78
2023/09/20 00:58:55;;;;;;;3.63;1.70;;;17.70;1.00;;;;;;4978861;28;20621;-78
2023/09/20 01:01:23;;;;;;;9.50;2.10;;;17.70;1.00;;;;;;4978871;28;20674;-78
2023/09/20 01:03:48;;;;;;;5.67;2.10;;;17.70;1.00;;;;;;4978055;28;20293;-78
2023/09/20 01:06:19;;;;;;;6.23;2.10;;;17.70;39.10;;;;;;4977899;28;20170;-80
2023/09/20 01:08:48;;;;;;;7.20;1.80;;;17.80;98.20;;;;;;4970397;28;20246;-78
2023/09/20 01:11:15;;;;;;;6.40;1.90;;;17.70;99.90;;;;;;4957929;28;20202;-79
2023/09/20 01:13:40;;;;;;;5.30;1.90;;;17.70;99.90;;;;;;4958173;28;20189;-78
2023/09/20 01:16:09;;;;;;;6.23;1.40;;;17.70;99.90;;;;;;4959880;29;20242;-78
2023/09/20 01:18:34;;;;;;;7.10;1.90;;;17.80;99.90;;;;;;4978080;28;20213;-78
2023/09/20 01:21:00;;;;;;;5.73;1.93;;;17.60;99.90;;;;;;4978032;28;20642;-78
2023/09/20 01:23:27;;;;;;;7.30;1.70;;;17.60;99.90;;;;;;4978633;28;20202;-78
2023/09/20 01:25:56;;;;;;;7.13;2.13;;;17.60;99.90;;;;;;4978929;28;20261;-78
2023/09/20 01:28:25;;;;;;;7.43;2.43;;;17.50;99.90;;;;;;4976892;28;20273;-78
2023/09/20 01:30:50;;;;;;;7.83;1.77;;;17.50;99.90;;;;;;4977901;28;20194;-78
2023/09/20 01:33:16;;;;;;;4.53;1.87;;;17.50;99.90;;;;;;4977867;28;20629;-78
2023/09/20 01:35:45;;;;;;;7.73;2.00;;;17.50;99.90;;;;;;4978722;28;20186;-79
2023/09/20 01:38:11;;;;;;;10.03;2.20;;;17.40;99.90;;;;;;4975842;28;20190;-78
2023/09/20 01:40:39;;;;;;;7.73;1.70;;;17.40;1.00;;;;;;4977706;28;20176;-78
2023/09/20 01:43:08;;;;;;;9.13;2.20;;;17.40;1.00;;;;;;4976595;28;20203;-78
2023/09/20 01:45:35;;;;;;;7.93;1.90;;;17.40;1.00;;;;;;4978265;28;20181;-78
2023/09/20 01:48:05;;;;;;;8.10;2.00;;;17.40;99.90;;;;;;4976220;28;20608;-79
2023/09/20 01:50:30;;;;;;;6.50;1.70;;;17.40;99.90;;;;;;4976897;28;20305;-78
2023/09/20 01:52:58;;;;;;;10.07;2.50;;;17.30;99.90;;;;;;4976929;28;20213;-78
2023/09/20 01:55:24;;;;;;;6.33;1.90;;;17.30;99.90;;;;;;4977763;28;20540;-78
2023/09/20 01:57:55;;;;;;;6.53;2.40;;;17.30;99.90;;;;;;4976889;28;20254;-78
2023/09/20 02:00:31;;;;;;;8.77;2.03;;;17.30;99.90;;;;;;4977865;28;20162;-78
2023/09/20 02:02:58;;;;;;;5.40;2.23;;;17.20;99.90;;;;;;4976112;28;20193;-78
2023/09/20 02:05:25;;;;;;;7.43;2.17;;;17.20;99.90;;;;;;4976003;28;20578;-78
2023/09/20 02:07:52;;;;;;;3.77;1.70;;;17.20;99.90;;;;;;4976203;28;20187;-79
2023/09/20 02:10:18;;;;;;;5.37;1.80;;;17.20;99.90;;;;;;4976085;28;20179;-78
2023/09/20 02:12:52;;;;;;;8.03;2.30;;;17.20;99.90;;;;;;4976869;28;20543;-78
2023/09/20 02:15:18;;;;;;;6.33;2.10;;;17.10;99.90;;;;;;4976111;28;20167;-78
2023/09/20 02:17:45;;;;;;;7.80;2.10;;;17.10;1.00;;;;;;4976001;28;20186;-78
2023/09/20 02:20:19;;;;;;;5.63;2.03;;;17.10;99.90;;;;;;4976316;28;20693;-78
2023/09/20 02:22:50;;;;;;;5.90;1.90;;;17.10;99.90;;;;;;4975889;28;20194;-78
2023/09/20 02:25:20;;;;;;;7.40;2.07;;;17.10;99.90;;;;;;4975383;28;20174;-78
2023/09/20 02:27:46;;;;;;;9.67;2.20;;;17.00;1.00;;;;;;4974871;28;20205;-78
2023/09/20 02:30:19;;;;;;;6.00;2.00;;;17.00;99.90;;;;;;4977397;28;20589;-78
2023/09/20 02:32:46;;;;;;;6.13;1.90;;;17.00;1.00;;;;;;4975542;28;20205;-78
2023/09/20 02:35:12;;;;;;;5.20;1.77;;;17.10;99.90;;;;;;4966876;28;20186;-78
2023/09/20 02:37:38;;;;;;;7.33;2.00;;;16.90;99.90;;;;;;4956100;28;20175;-78
2023/09/20 02:40:07;;;;;;;5.13;1.90;;;16.90;99.90;;;;;;4957954;29;20156;-78
2023/09/20 02:42:49;;;;;;;7.30;2.67;;;16.90;1.00;;;;;;4957951;28;20269;-80
2023/09/20 02:45:19;;;;;;;8.00;2.47;;;16.90;1.00;;;;;;4978044;28;20193;-78
2023/09/20 02:47:46;;;;;;;7.77;2.47;;;16.90;1.00;;;;;;4977402;28;20170;-78
2023/09/20 02:50:13;;;;;;;4.70;2.03;;;16.80;1.00;;;;;;4974710;28;20181;-78
2023/09/20 02:52:40;;;;;;;8.90;2.20;;;16.80;1.00;;;;;;4975810;28;20710;-79
2023/09/20 02:55:11;;;;;;;10.57;2.30;;;16.80;1.00;;;;;;4976695;28;20213;-79
2023/09/20 02:57:37;;;;;;;10.77;2.40;;;16.80;1.00;;;;;;4976326;28;20159;-78
2023/09/20 03:00:15;;;;;;;7.07;1.93;;;16.80;1.00;;;;;;4976584;28;20598;-78
2023/09/20 03:02:45;;;;;;;5.73;2.30;;;16.70;1.00;;;;;;4975554;28;20206;-78
2023/09/20 03:05:21;;;;;;;7.53;2.20;;;16.70;1.00;;;;;;4976449;28;20240;-78
2023/09/20 03:07:49;;;;;;;7.07;1.93;;;16.70;1.00;;;;;;4975002;28;20684;-79
2023/09/20 03:10:16;;;;;;;4.37;2.10;;;16.70;53.00;;;;;;4976780;28;20217;-78
2023/09/20 03:12:44;;;;;;;4.93;2.20;;;16.60;80.00;;;;;;4958066;28;20249;-78
2023/09/20 03:15:11;;;;;;;6.40;1.97;;;16.60;91.00;;;;;;4957118;29;20263;-78
2023/09/20 03:17:38;;;;;;;5.80;1.97;;;16.60;96.00;;;;;;4956545;29;20650;-79
2023/09/20 03:20:10;;;;;;;10.10;2.57;;;16.60;99.90;;;;;;4956719;29;20543;-78
2023/09/20 03:22:37;;;;;;;6.03;2.10;;;16.50;99.90;;;;;;4970738;28;20202;-79
2023/09/20 03:25:04;;;;;;;4.40;1.83;;;16.40;99.90;;;;;;4974838;28;20293;-78
2023/09/20 03:27:30;;;;;;;6.53;2.07;;;16.50;99.90;;;;;;4977141;28;20637;-78
2023/09/20 03:29:57;;;;;;;4.77;2.27;;;16.50;99.90;;;;;;4976549;28;20222;-78
2023/09/20 03:32:23;;;;;;;5.40;1.97;;;16.50;99.90;;;;;;4975609;28;20222;-78
2023/09/20 03:34:49;;;;;;;7.03;2.20;;;16.50;99.90;;;;;;4980045;28;20233;-78
2023/09/20 03:37:17;;;;;;;5.23;2.20;;;16.30;99.90;;;;;;4978635;28;20185;-78
2023/09/20 03:39:43;;;;;;;7.10;2.20;;;16.40;99.90;;;;;;4978631;28;20203;-78
2023/09/20 03:42:11;;;;;;;5.97;2.47;;;16.40;99.90;;;;;;4977318;28;20206;-79
2023/09/20 03:44:39;;;;;;;5.87;2.53;;;16.40;99.90;;;;;;4980149;28;20253;-79
2023/09/20 03:47:05;;;;;;;13.70;2.60;;;16.40;99.90;;;;;;4977577;28;20186;-79
2023/09/20 03:49:31;;;;;;;7.73;2.23;;;16.30;99.90;;;;;;4978380;28;20253;-78
2023/09/20 03:51:59;;;;;;;5.53;2.30;;;16.30;99.90;;;;;;4978361;28;20666;-79
2023/09/20 03:54:25;;;;;;;5.80;2.63;;;16.30;99.90;;;;;;4978948;28;20550;-79
2023/09/20 03:56:51;;;;;;;6.47;2.40;;;16.30;99.90;;;;;;4979064;28;20186;-78
2023/09/20 03:59:17;;;;;;;5.63;2.43;;;16.30;99.90;;;;;;4978780;28;20187;-78
2023/09/20 04:01:43;;;;;;;6.03;2.50;;;16.30;99.90;;;;;;4978342;28;20202;-79
2023/09/20 04:04:08;;;;;;;6.97;2.10;;;16.20;99.90;;;;;;4978208;28;20191;-78
2023/09/20 04:06:34;;;;;;;4.47;2.20;;;16.30;99.90;;;;;;4978394;28;20698;-79
2023/09/20 04:09:09;;;;;;;5.87;2.40;;;16.30;99.90;;;;;;4977204;28;20546;-76
2023/09/20 04:11:39;;;;;;;9.63;2.87;;;16.30;99.90;;;;;;4976713;28;20607;-77
2023/09/20 04:14:07;;;;;;;8.33;3.03;;;16.30;99.90;;;;;;4976478;28;20178;-76
2023/09/20 04:16:33;;;;;;;5.17;2.10;;;16.30;99.90;;;;;;4975282;28;20178;-76
2023/09/20 04:18:58;;;;;;;6.13;2.20;;;16.20;99.90;;;;;;4976630;28;20170;-76
2023/09/20 04:21:24;;;;;;;3.53;1.87;;;16.20;99.90;;;;;;4976321;28;20194;-76
2023/09/20 04:23:50;;;;;;;4.20;2.00;;;16.20;99.90;;;;;;4977807;28;20281;-78
2023/09/20 04:26:15;;;;;;;9.23;2.80;;;16.20;99.90;;;;;;4978341;28;20257;-78
2023/09/20 04:28:41;;;;;;;6.47;2.03;;;16.20;99.90;;;;;;4978945;28;20178;-80
2023/09/20 04:31:08;;;;;;;5.57;1.90;;;16.10;99.90;;;;;;4980082;28;20693;-79
2023/09/20 04:33:35;;;;;;;6.07;2.23;;;16.10;99.90;;;;;;4986769;28;20294;-79
2023/09/20 04:36:04;;;;;;;8.83;2.27;;;16.10;99.90;;;;;;4990375;28;20190;-81
2023/09/20 04:38:30;;;;;;;5.03;2.43;;;16.10;99.90;;;;;;4990676;28;20241;-80
2023/09/20 04:40:56;;;;;;;4.40;2.17;;;16.10;99.90;;;;;;4990678;28;20209;-80
2023/09/20 04:43:22;;;;;;;5.83;2.03;;;16.00;99.90;;;;;;4986404;28;20194;-79
2023/09/20 04:45:47;;;;;;;4.93;1.83;;;16.00;99.90;;;;;;4984928;28;20174;-79
2023/09/20 04:48:13;;;;;;;8.07;2.60;;;16.10;99.90;;;;;;4965350;28;20207;-79
2023/09/20 04:50:38;;;;;;;10.00;2.70;;;16.00;99.90;;;;;;4959092;28;20203;-79
2023/09/20 04:53:04;;;;;;;5.67;2.07;;;15.90;99.90;;;;;;4958847;28;20286;-78
2023/09/20 04:55:33;;;;;;;3.73;1.90;;;15.90;99.90;;;;;;4959448;29;20175;-79
2023/09/20 04:58:02;;;;;;;7.40;1.97;;;15.90;99.90;;;;;;4975823;28;20602;-81
2023/09/20 05:00:33;;;;;;;10.23;2.30;;;15.90;99.90;;;;;;4977693;28;20167;-81
2023/09/20 05:03:00;;;;;;;6.10;2.00;;;15.80;99.90;;;;;;4975710;28;20635;-78
2023/09/20 05:05:26;;;;;;;9.87;2.13;;;15.80;99.90;;;;;;4976497;28;20167;-78
2023/09/20 05:07:52;;;;;;;5.53;1.97;;;15.80;99.90;;;;;;4974426;28;20512;-78
2023/09/20 05:10:18;;;;;;;6.10;2.00;;;15.80;99.90;;;;;;4976962;28;20167;-78
2023/09/20 05:12:43;;;;;;;4.43;2.00;;;15.80;99.90;;;;;;4975468;28;20201;-78
2023/09/20 05:15:12;;;;;;;5.40;2.43;;;15.80;99.90;;;;;;4976406;28;20185;-78
2023/09/20 05:17:43;;;;;;;5.70;2.10;;;15.80;99.90;;;;;;4975098;28;20273;-78
2023/09/20 05:20:12;;;;;;;4.13;1.90;;;15.80;99.90;;;;;;4976182;28;20509;-78
2023/09/20 05:22:37;;;;;;;5.93;2.20;;;15.80;99.90;;;;;;4975854;28;20527;-78
2023/09/20 05:25:03;;;;;;;6.77;2.50;;;15.80;99.90;;;;;;4974623;28;20195;-78
2023/09/20 05:27:29;;;;;;;4.80;2.40;;;15.70;99.90;;;;;;4963500;28;20194;-81
2023/09/20 05:29:56;;;;;;;7.80;2.33;;;15.80;99.90;;;;;;4957318;28;20655;-80
2023/09/20 05:32:22;;;;;;;7.47;2.20;;;15.70;99.90;;;;;;4957965;28;20250;-81
2023/09/20 05:34:47;;;;;;;5.40;1.90;;;15.70;99.90;;;;;;4963789;28;20181;-82
2023/09/20 05:37:13;;;;;;;4.63;1.93;;;15.70;99.90;;;;;;4979677;28;20194;-82
2023/09/20 05:39:38;;;;;;;7.63;2.23;;;15.70;99.90;;;;;;4975408;28;20498;-83
2023/09/20 05:42:05;;;;;;;5.70;2.00;;;15.70;99.90;;;;;;4975485;28;20205;-82
2023/09/20 05:44:31;;;;;;;6.43;1.80;;;15.70;99.90;;;;;;4973454;28;20213;-82
2023/09/20 05:46:58;;;;;;;4.77;2.47;;;15.70;99.90;;;;;;4972989;28;20531;-82
2023/09/20 05:49:24;;;;;;;5.57;2.27;;;15.70;99.90;;;;;;4973777;28;20197;-82
2023/09/20 05:51:52;;;;;;;5.30;2.43;;;15.70;99.90;;;;;;4973580;28;20202;-82
2023/09/20 05:54:21;;;;;;;6.53;2.43;;;15.70;99.90;;;;;;4975707;28;20186;-81
2023/09/20 05:56:47;;;;;;;5.70;2.10;;;15.80;99.90;;;;;;4975422;28;20260;-80
2023/09/20 05:59:13;;;;;;;7.13;2.63;;;15.70;99.90;;;;;;4975817;28;20190;-81
2023/09/20 06:01:40;;;;;;;5.77;2.60;;;15.70;99.90;;;;;;4976787;28;20202;-81
2023/09/20 06:04:09;;;;;;;3.90;2.20;;;15.80;99.90;;;;;;4978318;28;20198;-81
2023/09/20 06:06:37;;;;;;;6.90;2.70;;;15.80;99.90;;;;;;4974993;28;20661;-78
2023/09/20 06:09:03;;;;;;;5.10;2.47;;;15.80;99.90;;;;;;4973428;28;20178;-81
2023/09/20 06:11:28;;;;;;;5.97;2.13;;;15.80;99.90;;;;;;4968904;28;20241;-82
2023/09/20 06:13:54;;;;;;;7.20;2.30;;;15.80;99.90;;;;;;4974444;28;20193;-78
2023/09/20 06:16:20;;;;;;;5.57;2.20;;;15.80;99.90;;;;;;4974827;28;20261;-78
2023/09/20 06:18:48;;;;;;;6.30;2.20;;;15.80;99.90;;;;;;4972118;28;20186;-78
2023/09/20 06:21:14;;;;;;;5.73;2.40;;;15.80;99.90;;;;;;4972473;28;20262;-79
2023/09/20 06:23:40;;;;;;;7.70;2.43;;;15.90;99.90;;;;;;4973927;28;20218;-78
2023/09/20 06:26:09;;;;;;;3.87;2.07;;;15.90;99.90;;;;;;4973310;28;20274;-78
2023/09/20 06:28:35;;;;;;;4.80;2.23;;;15.90;99.90;;;;;;4973259;28;20261;-78
2023/09/20 06:31:01;;;;;;;9.90;2.50;;;15.90;99.90;;;;;;4974701;28;20658;-79
2023/09/20 06:33:27;;;;;;;10.70;2.47;;;15.90;99.90;;;;;;4973650;28;20189;-78
2023/09/20 06:35:55;;;;;;;7.10;2.67;;;16.00;99.90;;;;;;4975001;28;20680;-78
2023/09/20 06:38:23;;;;;;;6.40;2.30;;;16.00;99.90;;;;;;4976576;28;20205;-78
2023/09/20 06:40:53;;;;;;;5.33;2.13;;;16.00;99.90;;;;;;4978173;28;20186;-79
2023/09/20 06:43:19;;;;;;;5.17;2.33;;;16.00;99.90;;;;;;4975194;28;20202;-78
2023/09/20 06:45:52;;;;;;;6.87;2.27;;;16.00;99.90;;;;;;4961692;28;20191;-78
2023/09/20 06:48:24;;;;;;;4.13;2.13;;;16.10;99.90;;;;;;4956043;29;20183;-78
2023/09/20 06:50:50;;;;;;;5.83;2.00;;;16.10;99.90;;;;;;4957792;28;20159;-79
2023/09/20 06:53:17;;;;;;;4.57;2.23;;;16.10;99.90;;;;;;4955227;29;20183;-78
2023/09/20 06:55:43;;;;;;;5.73;2.40;;;16.10;99.90;;;;;;4965945;28;20198;-78
2023/09/20 06:58:09;;;;;;;5.90;2.63;;;16.10;99.90;;;;;;4974046;28;20179;-78
2023/09/20 07:00:35;;;;;;;6.90;2.30;;;16.10;99.90;;;;;;4974705;28;20185;-78
2023/09/20 07:03:02;;;;;;;3.43;2.30;;;16.20;99.90;;;;;;4975102;28;20198;-78
2023/09/20 07:05:30;;;;;;;4.60;2.00;;;16.10;99.90;;;;;;4975519;28;20189;-78
2023/09/20 07:07:56;;;;;;;9.13;2.00;;;16.20;99.90;;;;;;4974146;28;20174;-78
2023/09/20 07:10:22;;;;;;;7.27;2.43;;;16.20;99.90;;;;;;4972800;28;20650;-78
2023/09/20 07:12:49;;;;;;;4.33;2.43;;;16.20;99.90;;;;;;4973929;28;20202;-78
2023/09/20 07:15:16;;;;;;;6.50;2.60;;;16.20;99.90;;;;;;4973501;28;20563;-78
2023/09/20 07:17:42;;;;;;;8.40;2.00;;;16.20;99.90;;;;;;4975284;28;20179;-78
2023/09/20 07:20:17;;;;;;;8.30;2.10;;;16.20;99.90;;;;;;4974102;28;20181;-78
2023/09/20 07:22:44;;;;;;;6.67;2.47;;;16.30;99.90;;;;;;4975477;28;20202;-78
2023/09/20 07:25:19;;;;;;;5.33;2.47;;;16.30;99.90;;;;;;4973276;28;20206;-78
2023/09/20 07:27:49;;;;;;;8.40;2.30;;;16.30;99.90;;;;;;4974852;28;20598;-81
2023/09/20 07:30:19;;;;;;;5.83;2.50;;;16.40;99.90;;;;;;4975533;28;20174;-81
2023/09/20 07:32:46;;;;;;;7.20;1.87;;;16.30;99.90;;;;;;4974460;28;20197;-81
2023/09/20 07:35:19;;;;;;;4.10;2.10;;;16.40;99.90;;;;;;4973455;28;20213;-81
2023/09/20 07:37:55;;;;;;;6.30;2.13;;;16.40;99.90;;;;;;4974736;28;20201;-80
2023/09/20 07:40:21;;;;;;;5.37;2.13;;;16.40;99.90;;;;;;4975801;28;20757;-80
2023/09/20 07:42:49;;;;;;;6.13;2.00;;;16.50;99.90;;;;;;4974323;28;20198;-81
2023/09/20 07:45:15;;;;;;;5.50;2.10;;;16.50;99.90;;;;;;4973337;28;20202;-80
2023/09/20 07:47:43;;;;;;;4.40;2.00;;;16.70;99.90;;;;;;4973870;28;20524;-81
2023/09/20 07:50:11;;;;;;;8.30;2.20;;;16.50;99.90;;;;;;4974868;28;20261;-78
2023/09/20 07:52:40;;;;;;;6.73;2.40;;;16.60;99.90;;;;;;4973984;28;20190;-78
2023/09/20 07:55:08;;;;;;;3.13;1.87;;;16.60;99.90;;;;;;4972495;28;20182;-78
2023/09/20 07:57:33;;;;;;;7.27;2.23;;;16.70;99.90;;;;;;4973285;28;20253;-78
2023/09/20 07:59:59;;;;;;;3.63;1.90;;;16.80;99.90;;;;;;4972571;28;20179;-78
2023/09/20 08:02:25;;;;;;;5.43;2.33;;;16.80;99.90;;;;;;4972727;28;20198;-78
2023/09/20 08:04:51;;;;;;;6.27;2.30;;;16.90;99.90;;;;;;4972291;28;20280;-78
2023/09/20 08:07:17;;;;;;;4.77;2.03;;;16.90;99.90;;;;;;4972804;28;20187;-78
2023/09/20 08:09:43;;;;;;;5.27;1.97;;;16.90;99.90;;;;;;4972147;28;20174;-78
2023/09/20 08:12:11;;;;;;;4.43;1.90;;;17.00;99.90;;;;;;4973785;28;20627;-78
2023/09/20 08:14:37;;;;;;;7.43;1.87;;;17.00;99.90;;;;;;4972415;28;20214;-78
2023/09/20 08:19:47;;;;;;;4.47;2.20;;;17.10;99.90;;;;;;4975704;28;20197;-78
2023/09/20 08:22:15;;;;;;;3.90;2.23;;;17.20;99.90;;;;;;4977449;28;20194;-78
2023/09/20 09:00:31;;;;;;;4.93;1.83;;;17.90;86.10;;;;;;4976637;28;20170;-79
2023/09/20 09:02:58;;;;;;;7.90;2.00;;;18.00;67.60;;;;;;4976551;28;20577;-79
2023/09/20 09:05:27;;;;;;;4.83;1.53;;;18.00;60.70;;;;;;4974453;28;20664;-78
2023/09/20 09:07:54;;;;;;;6.30;1.80;;;18.10;31.00;;;;;;4977167;28;20626;-79
2023/09/20 09:10:20;;;;;;;3.70;1.73;;;18.10;15.20;;;;;;4976897;28;20170;-79
2023/09/20 09:12:46;;;;;;;4.00;1.93;;;18.10;11.00;;;;;;4976657;28;20206;-78
2023/09/20 09:15:12;;;;;;;6.30;2.23;;;18.10;1.00;;;;;;4975071;28;20178;-78
2023/09/20 09:17:40;;;;;;;6.63;1.60;;;18.30;1.00;;;;;;4974879;28;20179;-78
2023/09/20 09:20:10;;;;;;;3.13;1.50;;;18.20;1.00;;;;;;4976454;28;20194;-79
2023/09/20 09:22:39;;;;;;;10.30;1.73;;;18.30;1.00;;;;;;4975913;28;20217;-78
2023/09/20 09:25:12;;;;;;;3.03;1.80;;;18.30;1.00;;;;;;4976152;28;20268;-78
2023/09/20 09:27:39;;;;;;;3.53;1.70;;;18.40;1.00;;;;;;4956056;28;20184;-78
2023/09/20 09:30:12;;;;;;;5.63;1.70;;;18.40;1.00;;;;;;4955796;28;20254;-78
2023/09/20 09:32:38;;;;;;;5.93;1.60;;;18.50;1.00;;;;;;4955382;28;20239;-78
2023/09/20 09:35:05;;;;;;;5.13;1.50;;;18.50;1.00;;;;;;4954965;29;20211;-78
2023/09/20 09:37:32;;;;;;;4.87;1.80;;;18.60;1.00;;;;;;4973133;28;20777;-78
2023/09/20 09:40:02;;;;;;;4.27;1.90;;;18.80;1.00;;;;;;4975572;28;20166;-78
2023/09/20 09:42:28;;;;;;;4.60;1.40;;;18.70;1.00;;;;;;4974087;28;20619;-78
2023/09/20 09:44:55;;;;;;;4.80;1.30;;;18.80;1.00;;;;;;4973631;28;20209;-78
2023/09/20 09:47:24;;;;;;;2.57;1.40;;;18.80;1.00;;;;;;4971915;28;20599;-78
2023/09/20 09:49:52;;;;;;;4.73;1.33;;;18.90;1.00;;;;;;4974646;28;20178;-78
2023/09/20 09:52:23;;;;;;;2.73;1.40;;;18.90;1.00;;;;;;4973825;28;20194;-78
2023/09/20 09:54:50;;;;;;;2.00;1.40;;;19.00;1.00;;;;;;4975252;28;20150;-78
2023/09/20 09:57:18;;;;;;;6.93;1.67;;;19.10;1.00;;;;;;4962236;28;20187;-78
2023/09/20 09:59:45;;;;;;;4.73;1.40;;;19.20;1.00;;;;;;4956162;29;20254;-77
2023/09/20 10:02:17;;;;;;;2.87;1.33;;;19.30;1.00;;;;;;4954536;28;20215;-77
2023/09/20 10:04:50;;;;;;;2.83;1.50;;;19.30;1.00;;;;;;4954191;29;20576;-78
2023/09/20 10:07:18;;;;;;;3.20;1.37;;;19.40;1.00;;;;;;4966072;28;20184;-77
2023/09/20 10:09:49;;;;;;;3.27;1.57;;;19.50;1.00;;;;;;4975089;28;20167;-78
2023/09/20 10:12:16;;;;;;;3.63;1.60;;;19.60;1.00;;;;;;4974068;28;20201;-78
2023/09/20 10:14:43;;;;;;;3.77;1.60;;;19.70;1.00;;;;;;4974982;28;20178;-78
2023/09/20 10:17:14;;;;;;;3.93;1.70;;;19.70;1.00;;;;;;4972190;28;20206;-78
2023/09/20 10:19:39;;;;;;;2.63;1.40;;;19.80;1.00;;;;;;4974487;28;20218;-78
2023/09/20 10:22:08;;;;;;;7.83;1.60;;;19.80;1.00;;;;;;4974717;28;20570;-78
2023/09/20 10:24:46;;;;;;;4.20;1.70;;;19.90;1.00;;;;;;4973191;28;20198;-78
2023/09/20 10:27:17;;;;;;;8.13;2.13;;;19.90;1.00;;;;;;4973919;28;20247;-78
2023/09/20 10:29:59;;;;;;;3.27;1.40;;;20.00;1.00;;;;;;4973523;28;20220;-78
2023/09/20 10:32:31;;;;;;;4.90;1.70;;;20.00;1.00;;;;;;4974595;28;20202;-78
2023/09/20 10:35:21;;;;;;;4.07;1.50;;;20.00;1.00;;;;;;4974491;28;20197;-78
2023/09/20 10:38:21;;;;;;;4.90;1.30;;;20.10;1.00;;;;;;4972516;28;20669;-78
2023/09/20 10:40:47;;;;;;;3.57;1.50;;;20.30;1.00;;;;;;4962917;28;20197;-79
2023/09/20 10:43:32;;;;;;;3.73;1.27;;;20.30;1.00;;;;;;4974532;28;20250;-78
2023/09/20 10:46:00;;;;;;;3.53;1.50;;;20.30;1.00;;;;;;4972605;28;20175;-80
2023/09/20 10:48:27;;;;;;;4.07;1.60;;;20.20;1.00;;;;;;4953852;28;20246;-78
2023/09/20 10:50:57;;;;;;;3.67;1.60;;;20.30;1.00;;;;;;4954979;28;20171;-79
2023/09/20 10:53:47;;;;;;;2.87;1.67;;;20.40;1.00;;;;;;4955137;29;20274;-79
2023/09/20 10:56:53;;;;;;;4.00;1.30;;;20.60;1.00;;;;;;4955315;28;20202;-78
2023/09/20 10:59:25;;;;;;;4.43;1.07;;;20.50;99.90;;;;;;4974494;28;20638;-78
2023/09/20 11:01:56;;;;;;;3.97;1.07;;;20.60;99.90;;;;;;4974515;28;20191;-78
2023/09/20 11:04:23;;;;;;;2.20;0.90;;;20.70;99.90;;;;;;4973425;28;20305;-78
2023/09/20 11:06:50;;;;;;;3.77;1.10;;;20.60;99.90;;;;;;4972472;28;20559;-78
2023/09/20 11:09:15;;;;;;;2.87;1.00;;;20.70;99.90;;;;;;4973179;28;20236;-79
2023/09/20 11:11:42;;;;;;;2.37;1.10;;;20.70;99.90;;;;;;4974196;28;20691;-79
2023/09/20 11:14:14;;;;;;;2.17;1.13;;;20.80;99.90;;;;;;4972559;28;20202;-79
2023/09/20 11:16:42;;;;;;;5.23;1.47;;;20.80;99.90;;;;;;4973970;28;20170;-78
2023/09/20 11:19:12;;;;;;;5.33;1.43;;;20.80;99.90;;;;;;4973379;28;20230;-78
2023/09/20 11:21:42;;;;;;;1.63;0.87;;;20.90;99.90;;;;;;4974882;28;20666;-78
2023/09/20 11:24:14;;;;;;;1.43;0.90;;;20.90;99.90;;;;;;4975746;28;20206;-79
2023/09/20 11:26:40;;;;;;;2.63;1.00;;;21.00;99.90;;;;;;4976056;28;20546;-78
2023/09/20 11:29:10;;;;;;;2.63;1.07;;;21.10;99.90;;;;;;4975023;28;20177;-79
2023/09/20 11:31:37;;;;;;;4.60;1.20;;;21.00;99.90;;;;;;4974112;28;20198;-79
2023/09/20 11:34:04;;;;;;;2.30;1.03;;;21.10;99.90;;;;;;4973467;28;20200;-79
2023/09/20 11:36:37;;;;;;;2.97;1.10;;;21.20;99.90;;;;;;4977970;28;20238;-80
2023/09/20 11:39:05;;;;;;;3.10;1.13;;;21.30;99.90;;;;;;4975868;28;20198;-79
2023/09/20 11:41:32;;;;;;;2.23;1.03;;;21.40;99.90;;;;;;4975406;28;20291;-79
2023/09/20 11:43:58;;;;;;;3.67;1.40;;;21.40;99.90;;;;;;4973751;28;20522;-79
2023/09/20 11:46:31;;;;;;;1.30;0.90;;;21.50;99.90;;;;;;4975777;28;20197;-78
2023/09/20 11:49:00;;;;;;;2.37;1.00;;;21.50;99.90;;;;;;4975804;28;20590;-79
2023/09/20 11:51:28;;;;;;;1.87;1.10;;;21.60;99.90;;;;;;4975555;28;20210;-79
2023/09/20 11:53:54;;;;;;;4.07;1.30;;;21.50;99.90;;;;;;4976032;28;20188;-79
2023/09/20 11:56:25;;;;;;;1.73;0.93;;;21.70;90.00;;;;;;4978981;28;20251;-79
2023/09/20 11:58:54;;;;;;;3.30;1.13;;;21.70;99.90;;;;;;4978103;28;20189;-79
2023/09/20 12:01:24;;;;;;;3.17;1.30;;;21.70;37.00;;;;;;4978531;28;20198;-79
2023/09/20 12:03:51;;;;;;;4.67;1.27;;;21.70;99.90;;;;;;4979476;28;20198;-80
2023/09/20 12:06:18;;;;;;;1.97;0.93;;;21.90;99.60;;;;;;4979578;28;20178;-80
2023/09/20 12:08:43;;;;;;;4.23;1.27;;;22.00;99.90;;;;;;4977614;28;20198;-79
2023/09/20 12:11:09;;;;;;;2.93;1.10;;;21.90;1.00;;;;;;4978903;28;20273;-79
2023/09/20 12:13:35;;;;;;;1.67;0.83;;;22.00;97.20;;;;;;4978984;28;20326;-79
2023/09/20 12:16:00;;;;;;;1.20;0.90;;;22.00;99.90;;;;;;4978888;28;20281;-79
2023/09/20 12:18:27;;;;;;;2.90;1.30;;;22.00;99.90;;;;;;4978732;28;20233;-83
2023/09/20 12:20:52;;;;;;;6.57;1.17;;;22.00;49.60;;;;;;4980383;28;20186;-81
2023/09/20 12:23:18;;;;;;;1.60;1.07;;;21.90;99.90;;;;;;4979976;28;20289;-81
2023/09/20 12:25:44;;;;;;;3.47;0.90;;;21.90;52.50;;;;;;4980670;28;20178;-81
2023/09/20 12:28:10;;;;;;;2.33;1.30;;;21.90;99.90;;;;;;4979528;28;20233;-81
2023/09/20 12:30:37;;;;;;;3.40;1.23;;;21.90;54.00;;;;;;4980969;28;20174;-84
2023/09/20 12:33:03;;;;;;;2.20;0.93;;;21.90;90.70;;;;;;4979284;28;20225;-83
2023/09/20 12:35:30;;;;;;;2.87;1.43;;;22.10;99.90;;;;;;4978743;28;20188;-83
2023/09/20 12:37:56;;;;;;;3.43;1.20;;;22.20;99.90;;;;;;4978855;28;20190;-83
2023/09/20 12:40:23;;;;;;;2.63;1.40;;;22.40;1.00;;;;;;4980777;28;20209;-83
2023/09/20 12:42:49;;;;;;;4.23;1.27;;;22.50;1.00;;;;;;4979924;28;20650;-81
2023/09/20 12:45:15;;;;;;;2.60;1.10;;;22.50;1.00;;;;;;4980353;28;20205;-82
2023/09/20 12:47:42;;;;;;;2.53;1.30;;;22.60;1.00;;;;;;4979664;28;20174;-82
2023/09/20 12:50:12;;;;;;;3.83;1.53;;;22.60;1.00;;;;;;4979124;28;20253;-82
2023/09/20 12:52:39;;;;;;;1.53;1.37;;;22.60;1.00;;;;;;4978651;28;20302;-83
2023/09/20 12:55:04;;;;;;;2.60;1.50;;;22.80;1.00;;;;;;4980789;28;20340;-82
2023/09/20 12:57:30;;;;;;;3.03;1.40;;;22.70;1.00;;;;;;4981481;28;20671;-83
2023/09/20 12:59:57;;;;;;;3.67;1.40;;;22.60;1.00;;;;;;4982830;28;20538;-83
2023/09/20 13:02:23;;;;;;;3.03;1.23;;;22.50;1.00;;;;;;4981413;28;20202;-84
2023/09/20 13:04:51;;;;;;;2.97;1.30;;;22.50;1.00;;;;;;4982321;28;20620;-82
2023/09/20 13:07:18;;;;;;;3.47;1.43;;;22.50;1.00;;;;;;4980543;28;20197;-83
2023/09/20 13:09:44;;;;;;;1.73;1.07;;;22.70;1.00;;;;;;4980374;28;20178;-83
2023/09/20 13:12:11;;;;;;;2.43;1.40;;;22.80;1.00;;;;;;4978617;28;20213;-84
2023/09/20 13:14:36;;;;;;;4.07;1.50;;;22.70;1.00;;;;;;4981172;28;20179;-83
2023/09/20 13:17:02;;;;;;;3.47;1.30;;;22.80;1.00;;;;;;4978207;28;20612;-83
2023/09/20 13:19:27;;;;;;;3.83;1.30;;;23.00;1.00;;;;;;4980866;28;20201;-83
2023/09/20 13:21:53;;;;;;;3.67;1.37;;;23.10;56.50;;;;;;4980479;28;20217;-83
2023/09/20 13:24:19;;;;;;;3.77;1.50;;;23.20;1.00;;;;;;4982849;28;20202;-83
2023/09/20 13:26:44;;;;;;;2.53;1.33;;;23.20;1.00;;;;;;4981695;28;20203;-82
2023/09/20 13:29:13;;;;;;;2.43;1.63;;;23.30;1.00;;;;;;4981115;28;20167;-84
2023/09/20 13:31:40;;;;;;;3.87;1.37;;;23.30;1.00;;;;;;4983477;28;20190;-84